This is the latest recevied weather packets stored in our database for station/object SQ7FJB-2. If no packets are shown the sender has not sent any weather packets the latest 10 day(s).
| Time | Temp. | Humidity | Pressure | Rain* | Wind** | Luminosity | Snow |
|---|---|---|---|---|---|---|---|
| 1777318817 | 3.89° C | 73% | 1020 hPa | 0 mm | - | - | - |
| 1777318217 | 3.89° C | 75% | 1019.9 hPa | 0 mm | - | - | - |
| 1777317604 | 3.89° C | 74% | 1019.9 hPa | 0 mm | - | - | - |
| 1777317004 | 4.44° C | 74% | 1019.9 hPa | 0 mm | - | - | - |
| 1777316391 | 4.44° C | 72% | 1019.8 hPa | 0 mm | - | - | - |
| 1777315792 | 5° C | 72% | 1019.9 hPa | 0 mm | - | - | - |
| 1777315179 | 5.56° C | 68% | 1019.8 hPa | 0 mm | - | - | - |
| 1777314580 | 6.11° C | 69% | 1019.8 hPa | 0 mm | - | - | - |
| 1777313967 | 6.67° C | 66% | 1019.7 hPa | 0 mm | - | - | - |
| 1777313367 | 7.78° C | 62% | 1019.7 hPa | 0 mm | - | - | - |
| 1777312767 | 8.33° C | 58% | 1019.7 hPa | 0 mm | - | - | - |
| 1777312167 | 8.89° C | 54% | 1019.6 hPa | 0 mm | - | - | - |
| 1777311566 | 9.44° C | 49% | 1019.6 hPa | 0 mm | - | - | - |
| 1777310967 | 10° C | 49% | 1019.7 hPa | 0 mm | - | - | - |
| 1777310354 | 10° C | 46% | 1019.7 hPa | 0 mm | - | - | - |
| 1777309754 | 10.56° C | 43% | 1019.6 hPa | 0 mm | - | - | - |
| 1777309154 | 11.11° C | 43% | 1019.7 hPa | 0 mm | - | - | - |
| 1777308543 | 11.11° C | 42% | 1019.7 hPa | 0 mm | - | - | - |
| 1777307941 | 11.11° C | 43% | 1019.7 hPa | 0 mm | - | - | - |
| 1777307279 | 11.11° C | 43% | 1019.7 hPa | 0 mm | - | - | - |
| 1777306679 | 11.11° C | 42% | 1019.5 hPa | 0 mm | - | - | - |
| 1777306067 | 11.11° C | 42% | 1019.6 hPa | 0 mm | - | - | - |
| 1777305454 | 11.67° C | 41% | 1019.8 hPa | 0 mm | - | - | - |
| 1777304842 | 11.67° C | 44% | 1019.8 hPa | 0 mm | - | - | - |
| 1777304096 | 12.22° C | 40% | 1019.9 hPa | 0 mm | - | - | - |
* Rain latest hour (hover to see other rain measurements)
** Current wind speed in m/s (hover to see current wind gust speed)